KLAR/LAR METAR and TAF weather

Enter ICAO airport designator
Station Type Date Time Source
KLAR METAR 2022/09/26 07:53 UTC NOAA

KLAR 260753Z AUTO 16008KT 10SM CLR 03/00 A3040 RMK AO2 SLP219 T00330000


Station Type Date Time Source
KLAR Decoded METAR 2022/09/26 07:53 UTC NOAA

LARAMIE REGIONAL AIRPORT, WY, United States (KLAR) 41-19N 105-40W 2216M
Sep 26, 2022 - 03:53 AM EDT / 2022.09.26 0753 UTC
Wind: from the SSE (160 degrees) at 9 MPH (8 KT):0
Visibility: 10 mile(s):0
Sky conditions: clear
Temperature: 37.9 F (3.3 C)
Dew Point: 32.0 F (0.0 C)
Relative Humidity: 78%
Pressure (altimeter): 30.4 in. Hg (1029 hPa)
ob: KLAR 260753Z AUTO 16008KT 10SM CLR 03/00 A3040 RMK AO2 SLP219 T00330000
cycle: 8

Station Type Date Time Source
KLAR TAF 2022/09/26 06:22 UTC NOAA

TAF KLAR 260520Z 2606/2706 VRB06KT P6SM SKC
FM261800 33010KT P6SM FEW250

Example: see airport list